CheckWX is a tool to help pilots better visualize weather data.  It is not intended as a substitute for an official pre-flight weather briefing.

15:58:16 UTC

KBTA METAR
Blair Municipal Airport
Blair, Nebraska, USA
Current

23 mins ago

KBTA 291535Z AUTO 35006G14KT 10SM CLR 20/08 A3020 RMK AO2 T01980079
Observed
May-29 @ 15:35 UTC
Wind
  • 350° at 6 KTS
  • Gusting to 14 KTS
Visibility
Flight Rules
VFR
Cloud Levels
  • Clear skies
Temperature
20°C / 68°F
Dewpoint
C / 46°F
Humidity
46%
Altimeter
30.2" Hg
Pressure
1022.72 hPa
Previous

43 mins ago

KBTA 291515Z AUTO 34009KT 10SM CLR 20/07 A3020 RMK AO2 T01970066
Observed
May-29 @ 15:15 UTC
Wind
  • 340° at 9 KTS
Visibility
Flight Rules
VFR
Cloud Levels
  • Clear skies
Temperature
20°C / 68°F
Dewpoint
C / 45°F
Humidity
43%
Altimeter
30.2" Hg
Pressure
1022.72 hPa
Previous

1 hour ago

KBTA 291455Z AUTO 31007KT 10SM CLR 19/06 A3020 RMK AO2 T01890064
Observed
May-29 @ 14:55 UTC
Wind
  • 310° at 7 KTS
Visibility
Flight Rules
VFR
Cloud Levels
  • Clear skies
Temperature
19°C / 66°F
Dewpoint
C / 43°F
Humidity
43%
Altimeter
30.2" Hg
Pressure
1022.72 hPa